ENBN

Brønnøysund Airport

Brønnøy, Norway
TAF ENBN 210800Z 2109/2115 23015KT 9999 -RA SCT007 BKN015 TEMPO 2109/2115 4000 RADZ BKN006
Issued Valid From Valid To
Apr-21 @ 08:00 UTC
(2 hours ago)
Apr-21 @ 09:00 UTC
(33 minutes ago)
Apr-21 @ 15:00 UTC
(in 5 hours)
Apr-21 @ 09:00 to Apr-21 @ 15:00
TAF ENBN 210800Z 2109/2115 23015KT 9999 -RA SCT007 BKN015
Wind Visibility Clouds Conditions
230° at 15 knots 10,000+ meters
  • Scattered at 700' AGL
  • Broken at 1,500' AGL
  • Light Rain
Temporary Apr-21 @ 09:00 to Apr-21 @ 15:00
TEMPO 2109/2115 4000 RADZ BKN006
Visibility Clouds Conditions
4,007 meters
  • Broken at 600' AGL
  • Rain
  • Drizzle
TAF ENBN 210800Z 2109/2115 23015KT 9999 -RA SCT007 BKN015 TEMPO 2109/2115 4000 RADZ BKN006
Issued Apr-21 @ 08:00 UTC
(2 hours ago)
Valid From Apr-21 @ 09:00 UTC
(33 minutes ago)
Valid To Apr-21 @ 15:00 UTC
(in 5 hours)
Apr-21 @ 09:00 - Apr-21 @ 15:00
Wind Visibility
230° at 15 knots 10,000+ meters
Clouds
  • Scattered at 700' AGL
  • Broken at 1,500' AGL
Conditions
  • Light Rain
Temporary Apr-21 @ 09:00 - Apr-21 @ 15:00
Clouds
  • Broken at 600' AGL
Conditions
  • Rain
  • Drizzle